Aérodrome :
LOGIN :

S'inscrire | Disclaimer

   EN    FR    IT 

 










Légende :    VFR   VFR Marginal   IFR   IFR Intensif   IFR Très Intensif
Visi : 
Plafond : 
>= 8 km
>= 3000ft
5 à 8 km
1000 à 3000 ft
1500m à 5 km
500 à 1000 ft
800 à 1500m
200 à 500 ft
< 800m
< 200 ft
Symboles :   Orages  Brouillard  Fortes neiges  Fortes précipitations  Vent > 20 kt
SIGMETs :   Divers  Orages  Givrage  Turbulence  Onde Orograph.  Cendres Volcan.







- Altitude de l'aérodrome : 353 ft
- Code IATA : ZAG


LDZA - Zagreb Pleso

DERNIER METAR :
  • 181500Z VRB02KT 9999 FEW030TCU FEW040 26/20 Q1014 TEMPO FEW030TCU

METARs EXPIRÉS :
  • 181430Z 02004KT 320V120 9999 FEW040 26/18 Q1015 TEMPO FEW030TCU
  • 181400Z 36003KT 300V090 9999 FEW040 25/19 Q1015 TEMPO FEW030TCU
  • 181330Z 01006KT 330V070 9999 FEW035 25/19 Q1015 TEMPO FEW030TCU
  • 181300Z 35005KT 320V060 9999 FEW030TCU FEW035 24/19 Q1015 NOSIG
  • 181230Z 33006KT 9999 -RA FEW030TCU FEW035 23/20 Q1016 NOSIG

TAF TAF LDZA
Valide du 18 à 12h jusqu'au 19 à 12h UTC


181125Z 1812/1912 VRB02KT 9999 SCT035 TX26/1813Z TN18/1903Z
PROB40
TEMPO 1812/1820 -TSRA FEW025TCU FEW030CB BKN035
TEMPO 1822/1906 2000 BR BKN004
PROB30
TEMPO 1903/1906 0500 FG VV002
ATIS : +385 1 6-259-214
Pas de NOTAMs connus pour ce terrain.



MET'MAP, la Météo Aéronautique d'un coup d'oeil ! - Copyright ORBIFLY Décembre 2007 - Disclaimer

ORBIFLY MET'MAP TEAM :

Programmation & Développement : Alexandra Zaïnal
Conception & Développement : Baudouin d'Aumeries
Co-Programmation & Développement : Marc-Olivier Méhu
Soutien technique & logistique : Manuel Goepfert

Contact : metmap@orbifly.com




SOURCES & CREDITS :

   NOAA